Atlantic Beach, New York
Current Conditions -  °F | °C
As of 10:51 AM on Saturday 20 Dec 2014 (Local Time) from KJFK Reporting Station
Overcast Overcast  
Wind Chill: -4°   Ceiling: 2600
Heat Index:   Visibility: 10mi
Dew Point: -7°   Wind: 9mph
Humidity: 61%   Direction: 360°N
Pressure: 30.31"   Gusts: NA
Location:  40.59°N, 73.73°W
Report Text: KJFK 201551Z 36008KT 10SM OVC026 00/M07 A3031 RMK AO2 SLP262 T00001067 $
Loading
Personal Weather Stations






























Interactive Weather Map New forecast layout! Learn more

10-Day Weather Forecast

Advertisements
Track Severe Weather on mobile